Time;durP1;ratioP1;P1;durP2;ratioP2;P2;SDS_P1;SDS_P2;PMS_P1;PMS_P2;Temp;Humidity;BMP_temperature;BMP_pressure;BME280_temperature;BME280_humidity;BME280_pressure;Samples;Min_cycle;Max_cycle;Signal;HPM_P1;HPM_P2
2023/05/06 00:01:52;;;;;;;16.50;14.80;;;13.70;99.90;;;-141.84;90.26;19958.13;5031725;28;20703;-51
2023/05/06 00:04:20;;;;;;;16.83;15.23;;;13.60;99.90;;;-141.84;89.20;19976.44;5031881;28;20195;-57
2023/05/06 00:06:49;;;;;;;16.67;14.50;;;13.60;99.90;;;-141.84;89.04;19988.63;5031379;28;20208;-54
2023/05/06 00:09:17;;;;;;;15.93;14.33;;;13.60;99.90;;;-141.84;89.76;19947.97;5014769;28;20205;-51
2023/05/06 00:11:46;;;;;;;16.20;14.50;;;13.60;99.90;;;-141.84;90.30;19925.63;5028768;28;20209;-54
2023/05/06 00:14:14;;;;;;;15.67;14.13;;;13.60;99.90;;;-141.84;90.59;19895.13;5031731;28;20214;-53
2023/05/06 00:16:42;;;;;;;17.93;14.83;;;13.60;99.90;;;-141.84;90.48;19913.44;5031315;28;20685;-52
2023/05/06 00:19:12;;;;;;;16.20;14.50;;;13.50;99.90;;;-141.84;90.70;19901.22;5031655;28;20271;-53
2023/05/06 00:21:40;;;;;;;16.67;15.00;;;13.50;99.90;;;-141.84;90.14;19919.53;5031496;28;20202;-53
2023/05/06 00:24:10;;;;;;;16.80;15.03;;;13.50;99.90;;;-141.84;89.70;19931.72;5031344;28;20836;-55
2023/05/06 00:26:38;;;;;;;16.47;14.83;;;13.60;99.90;;;-141.84;89.89;19893.09;5031279;28;20237;-52
2023/05/06 00:29:06;;;;;;;17.63;15.90;;;13.50;99.90;;;-141.84;90.07;19903.25;5031512;28;20542;-51
2023/05/06 00:31:34;;;;;;;15.93;14.33;;;13.50;99.90;;;-141.84;90.47;19909.34;5031146;28;20224;-55
2023/05/06 00:34:03;;;;;;;18.40;15.60;;;13.50;99.90;;;-141.84;90.16;19943.91;5031320;28;20271;-55
2023/05/06 00:36:33;;;;;;;18.20;16.30;;;13.50;99.90;;;-141.84;89.69;19925.63;5033254;28;20220;-54
2023/05/06 00:39:01;;;;;;;17.03;15.23;;;13.50;99.90;;;-141.84;89.71;19903.25;5033330;28;20209;-54
2023/05/06 00:41:32;;;;;;;17.33;15.33;;;13.50;99.90;;;-141.84;89.85;19911.41;5033318;28;20206;-55
2023/05/06 00:44:00;;;;;;;18.30;15.97;;;13.50;99.90;;;-141.84;90.09;19891.06;5033197;28;20201;-55
2023/05/06 00:46:28;;;;;;;17.33;15.53;;;13.50;99.90;;;-141.84;90.25;19913.44;5032088;28;20205;-55
2023/05/06 00:48:57;;;;;;;22.70;16.13;;;13.40;99.90;;;-141.84;88.65;19891.06;5032125;28;20198;-54
2023/05/06 00:51:26;;;;;;;19.13;17.13;;;13.50;99.90;;;-141.84;88.75;19913.44;5032303;28;20200;-54
2023/05/06 00:53:56;;;;;;;19.17;15.60;;;13.40;99.90;;;-141.84;89.15;19846.34;5032734;28;20222;-56
2023/05/06 00:56:24;;;;;;;18.50;15.90;;;13.30;99.90;;;-141.84;89.79;19907.31;5033098;28;20229;-56
2023/05/06 00:58:54;;;;;;;17.10;15.50;;;13.30;99.90;;;-141.84;89.75;19872.78;5032792;28;20260;-49
2023/05/06 01:01:24;;;;;;;18.33;16.53;;;13.30;99.90;;;-141.84;90.14;19882.94;5032480;28;20208;-55
2023/05/06 01:03:55;;;;;;;17.87;16.00;;;13.30;99.90;;;-141.84;90.35;19870.75;5032021;28;20732;-55
2023/05/06 01:06:32;;;;;;;19.03;16.90;;;13.20;99.90;;;-141.84;90.82;19862.63;5031970;28;20554;-52
2023/05/06 01:09:18;;;;;;;22.93;16.87;;;13.20;99.90;;;-141.84;90.28;19864.66;5032757;28;20201;-53
2023/05/06 01:11:52;;;;;;;18.97;16.33;;;13.20;99.90;;;-141.84;89.59;19907.31;5032932;28;20197;-51
2023/05/06 01:14:33;;;;;;;17.57;15.77;;;13.20;99.90;;;-141.84;89.94;19866.69;5032667;28;20332;-52
2023/05/06 01:17:07;;;;;;;18.17;16.37;;;13.30;99.90;;;-141.84;90.50;19880.91;5032551;28;20646;-53
2023/05/06 01:19:46;;;;;;;21.63;17.20;;;13.20;99.90;;;-141.84;89.59;19864.66;5032811;28;20193;-54
2023/05/06 01:22:16;;;;;;;18.07;16.30;;;13.20;99.90;;;-141.84;88.18;19870.75;5032576;28;20194;-54
2023/05/06 01:24:46;;;;;;;18.03;16.23;;;13.20;99.90;;;-141.84;88.70;19874.81;5020525;28;20210;-54
2023/05/06 01:27:17;;;;;;;18.67;16.70;;;13.20;99.90;;;-141.84;89.14;19862.63;5012752;28;20231;-53
2023/05/06 01:29:47;;;;;;;17.87;15.80;;;13.20;99.90;;;-141.84;89.67;19856.53;5023728;28;20217;-52
2023/05/06 01:32:36;;;;;;;19.57;17.57;;;13.20;99.90;;;-141.84;90.27;19842.28;5032588;28;20198;-53
2023/05/06 01:35:16;;;;;;;20.17;18.07;;;13.20;99.90;;;-141.84;90.43;19842.28;5032606;28;20218;-55
2023/05/06 01:37:59;;;;;;;19.80;17.90;;;13.10;99.90;;;-141.84;90.05;19850.41;5032156;28;20182;-53
2023/05/06 01:40:31;;;;;;;19.03;17.00;;;13.20;99.90;;;-141.84;90.18;19821.97;5032312;28;20654;-51
2023/05/06 01:43:04;;;;;;;19.40;17.40;;;13.10;99.90;;;-141.84;90.55;19848.38;5032461;28;20198;-55
2023/05/06 01:45:37;;;;;;;19.60;17.33;;;13.10;99.90;;;-141.84;90.30;19880.91;5032608;28;20270;-52
2023/05/06 01:48:06;;;;;;;18.53;16.63;;;13.10;99.90;;;-141.84;89.48;19850.41;5032300;28;20283;-50
2023/05/06 01:50:36;;;;;;;19.83;17.73;;;13.10;99.90;;;-141.84;88.52;19868.72;5031374;28;20644;-53
2023/05/06 01:53:04;;;;;;;18.30;16.43;;;13.10;99.90;;;-141.84;88.29;19868.72;5030304;28;20198;-52
2023/05/06 01:55:34;;;;;;;18.47;16.50;;;13.10;99.90;;;-141.84;88.61;19862.63;5030841;28;20222;-54
2023/05/06 01:58:02;;;;;;;17.63;15.77;;;13.10;99.90;;;-141.84;87.63;19870.75;5032488;28;20229;-53
2023/05/06 02:00:30;;;;;;;18.63;16.73;;;13.10;99.90;;;-141.84;87.56;19832.13;5035374;28;20208;-53
2023/05/06 02:02:58;;;;;;;19.03;17.10;;;13.10;99.90;;;-141.84;88.15;19854.50;5036247;28;20206;-52
2023/05/06 02:05:27;;;;;;;18.50;16.47;;;13.10;99.90;;;-141.84;88.56;19880.91;5035489;28;20210;-54
2023/05/06 02:07:55;;;;;;;17.87;16.07;;;13.10;99.90;;;-141.84;88.00;19842.28;5034817;28;20657;-55
2023/05/06 02:10:23;;;;;;;17.60;15.77;;;13.00;99.90;;;-141.84;87.83;19866.69;5034424;28;20202;-54
2023/05/06 02:12:52;;;;;;;17.73;15.93;;;13.00;99.90;;;-141.84;87.74;19858.56;5034856;28;20217;-55
2023/05/06 02:15:21;;;;;;;19.30;17.23;;;13.00;99.90;;;-141.84;88.28;19834.16;5034456;28;20235;-54
2023/05/06 02:17:49;;;;;;;18.80;16.43;;;13.00;99.90;;;-141.84;88.64;19870.75;5034416;28;20213;-54
2023/05/06 02:20:17;;;;;;;18.33;16.43;;;13.00;99.90;;;-141.84;88.42;19840.25;5034038;28;20674;-55
2023/05/06 02:22:45;;;;;;;18.13;16.40;;;13.00;99.90;;;-141.84;87.97;19878.88;5034055;28;20202;-56
2023/05/06 02:25:13;;;;;;;17.50;15.80;;;13.00;99.90;;;-141.84;87.92;19846.34;5033905;28;20205;-54
2023/05/06 02:27:43;;;;;;;18.63;16.87;;;13.00;99.90;;;-141.84;88.10;19834.16;5033721;28;20258;-54
2023/05/06 02:30:13;;;;;;;18.17;15.97;;;12.90;99.90;;;-141.84;87.10;19856.53;5033852;28;20205;-55
2023/05/06 02:32:42;;;;;;;18.37;16.47;;;13.00;99.90;;;-141.84;86.62;19868.72;5033736;28;20206;-53
2023/05/06 02:35:10;;;;;;;18.93;16.83;;;13.00;99.90;;;-141.84;86.64;19864.66;5033837;28;20234;-54
2023/05/06 02:37:39;;;;;;;18.37;15.97;;;13.00;99.90;;;-141.84;87.49;19840.25;5033650;28;20297;-57
2023/05/06 02:40:09;;;;;;;18.53;16.63;;;13.00;99.90;;;-141.84;87.98;19840.25;5033653;28;20690;-54
2023/05/06 02:42:37;;;;;;;18.93;16.30;;;13.00;99.90;;;-141.84;88.35;19842.28;5033865;28;20221;-54
2023/05/06 02:45:07;;;;;;;17.03;15.33;;;12.90;99.90;;;-141.84;88.26;19854.50;5033699;28;20428;-56
2023/05/06 02:47:37;;;;;;;17.90;15.90;;;12.90;99.90;;;-141.84;88.48;19850.41;5033713;28;20237;-54
2023/05/06 02:50:06;;;;;;;17.47;15.77;;;12.90;99.90;;;-141.84;87.74;19834.16;5033556;28;20221;-53
2023/05/06 02:52:34;;;;;;;17.87;16.07;;;12.90;99.90;;;-141.84;88.40;19830.09;5033102;28;20689;-55
2023/05/06 02:55:03;;;;;;;17.63;15.80;;;12.80;99.90;;;-141.84;89.11;19809.78;5033526;28;20258;-53
2023/05/06 02:57:31;;;;;;;18.87;16.93;;;12.80;99.90;;;-141.84;89.41;19811.81;5033742;28;20229;-54
2023/05/06 02:59:59;;;;;;;19.10;16.93;;;12.80;99.90;;;-141.84;89.00;19797.59;5033470;28;20272;-54
2023/05/06 03:02:27;;;;;;;17.47;15.70;;;12.80;99.90;;;-141.84;89.42;19797.59;5032213;28;20692;-54
2023/05/06 03:04:57;;;;;;;18.23;16.43;;;12.80;99.90;;;-141.84;89.02;19797.59;5021577;28;20635;-53
2023/05/06 03:07:25;;;;;;;19.37;16.30;;;12.80;99.90;;;-141.84;89.09;19824.00;5033472;28;20210;-54
2023/05/06 03:09:54;;;;;;;17.40;15.70;;;12.80;99.90;;;-141.84;88.30;19805.72;5032724;28;20209;-54
2023/05/06 03:12:22;;;;;;;17.70;15.90;;;12.70;99.90;;;-141.84;88.33;19803.69;5033520;28;20210;-53
2023/05/06 03:14:50;;;;;;;17.60;15.90;;;12.80;99.90;;;-141.84;87.08;19824.00;5032809;28;20724;-56
2023/05/06 03:17:18;;;;;;;18.53;16.63;;;12.80;99.90;;;-141.84;88.06;19819.94;5032872;28;20594;-52
2023/05/06 03:19:49;;;;;;;18.97;17.07;;;12.80;99.90;;;-141.84;88.91;19807.75;5032974;28;20248;-49
2023/05/06 03:22:18;;;;;;;16.57;15.07;;;12.80;99.90;;;-141.84;89.39;19805.72;5032941;28;20224;-54
2023/05/06 03:24:46;;;;;;;17.53;15.83;;;12.70;99.90;;;-141.84;89.88;19789.44;5032757;28;20213;-52
2023/05/06 03:27:15;;;;;;;18.23;16.27;;;12.70;99.90;;;-141.84;90.20;19773.19;5032938;28;20329;-53
2023/05/06 03:29:43;;;;;;;17.90;16.03;;;12.60;99.90;;;-141.84;90.94;19726.44;5032825;28;20190;-54
2023/05/06 03:32:11;;;;;;;19.40;17.33;;;12.60;99.90;;;-141.84;91.53;19756.94;5032952;28;20225;-56
2023/05/06 03:34:39;;;;;;;19.33;17.30;;;12.50;99.90;;;-141.84;92.11;19718.31;5032560;28;20241;-55
2023/05/06 03:37:07;;;;;;;19.80;17.73;;;12.50;99.90;;;-141.84;91.99;19726.44;5032742;28;20527;-56
2023/05/06 03:39:37;;;;;;;19.60;17.60;;;12.50;99.90;;;-141.84;91.94;19726.44;5032932;28;20217;-54
2023/05/06 03:42:05;;;;;;;19.47;17.17;;;12.50;99.90;;;-141.84;92.01;19752.88;5033212;28;20209;-57
2023/05/06 03:44:36;;;;;;;19.33;17.47;;;12.50;99.90;;;-141.84;92.69;19716.28;5032742;28;20213;-58
2023/05/06 03:47:04;;;;;;;20.10;17.70;;;12.50;99.90;;;-141.84;93.09;19702.06;5032532;28;20198;-56
2023/05/06 03:49:32;;;;;;;20.97;18.77;;;12.40;99.90;;;-141.84;93.34;19732.53;5032048;28;20570;-54
2023/05/06 03:52:01;;;;;;;19.43;17.57;;;12.40;99.90;;;-141.84;93.70;19691.91;5022736;28;20670;-54
2023/05/06 03:54:29;;;;;;;21.20;19.00;;;12.40;99.90;;;-141.84;93.99;19702.06;5012657;28;20712;-54
2023/05/06 03:56:58;;;;;;;20.40;18.20;;;12.30;99.90;;;-141.84;93.45;19677.66;5030987;28;20206;-52
2023/05/06 03:59:26;;;;;;;19.10;17.33;;;12.40;99.90;;;-141.84;93.72;19673.59;5033718;28;20216;-54
2023/05/06 04:01:55;;;;;;;21.23;18.27;;;12.30;99.90;;;-141.84;93.83;19691.91;5032617;28;20213;-53
2023/05/06 04:04:24;;;;;;;21.20;19.10;;;12.30;99.90;;;-141.84;93.79;19675.63;5032354;28;20229;-55
2023/05/06 04:06:52;;;;;;;21.73;19.57;;;12.30;99.90;;;-141.84;93.23;19702.06;5032376;28;20552;-52
2023/05/06 04:09:20;;;;;;;22.37;20.07;;;12.30;99.90;;;-141.84;93.33;19677.66;5032044;28;20885;-53
2023/05/06 04:11:48;;;;;;;21.43;19.30;;;12.30;99.90;;;-141.84;93.40;19716.28;5031975;28;20252;-54
2023/05/06 04:14:18;;;;;;;21.80;19.43;;;12.30;99.90;;;-141.84;93.14;19691.91;5032338;28;20198;-56
2023/05/06 04:16:46;;;;;;;22.23;19.83;;;12.40;99.90;;;-141.84;92.34;19736.59;5031960;28;20226;-55
2023/05/06 04:19:16;;;;;;;20.43;18.33;;;12.40;99.90;;;-141.84;92.46;19718.31;5031669;28;20272;-54
2023/05/06 04:21:44;;;;;;;21.23;19.10;;;12.40;99.90;;;-141.84;92.11;19724.41;5030708;28;20202;-52
2023/05/06 04:24:14;;;;;;;20.97;18.87;;;12.40;99.90;;;-141.84;91.78;19732.53;5032599;28;20204;-55
2023/05/06 04:26:43;;;;;;;21.83;18.40;;;12.50;99.90;;;-141.84;92.11;19728.47;5032351;28;20222;-54
2023/05/06 04:29:11;;;;;;;21.27;18.97;;;12.40;99.90;;;-141.84;92.10;19704.09;5031959;28;20557;-53
2023/05/06 04:31:40;;;;;;;21.03;19.03;;;12.50;99.90;;;-141.84;92.23;19698.00;5031607;28;20542;-53
2023/05/06 04:34:09;;;;;;;21.17;19.07;;;12.50;99.90;;;-141.84;92.15;19720.34;5031826;28;20304;-51
2023/05/06 04:36:38;;;;;;;20.87;18.73;;;12.50;99.90;;;-141.84;90.64;19763.03;5031581;28;20222;-55
2023/05/06 04:39:09;;;;;;;20.80;18.73;;;12.60;99.90;;;-141.84;89.16;19746.78;5031871;28;20198;-53
2023/05/06 04:41:37;;;;;;;20.67;18.57;;;12.70;99.90;;;-141.84;87.12;19785.38;5031394;28;20201;-53
2023/05/06 04:44:05;;;;;;;18.80;16.90;;;12.80;99.90;;;-141.84;87.80;19783.34;5032362;28;20211;-52
2023/05/06 04:46:33;;;;;;;20.93;18.80;;;12.80;99.90;;;-141.84;88.40;19791.47;5031872;28;20205;-53
2023/05/06 04:49:03;;;;;;;19.83;17.80;;;12.80;99.90;;;-141.84;88.24;19805.72;5031975;28;20205;-57
2023/05/06 04:51:31;;;;;;;23.07;19.17;;;12.80;99.90;;;-141.84;87.74;19789.44;5031516;28;20577;-53
2023/05/06 04:54:00;;;;;;;20.50;18.60;;;12.80;99.90;;;-141.84;87.29;19868.72;5031830;28;20221;-52
2023/05/06 04:56:28;;;;;;;20.77;18.57;;;12.80;99.90;;;-141.84;87.39;19791.47;5031359;28;20317;-55
2023/05/06 04:58:56;;;;;;;20.70;18.60;;;13.10;99.90;;;-141.84;87.07;19813.84;5031383;28;20577;-55
2023/05/06 05:01:25;;;;;;;20.40;18.30;;;13.00;99.90;;;-141.84;87.15;19817.91;5031176;28;20212;-52
2023/05/06 05:03:53;;;;;;;24.73;20.50;;;13.00;99.90;;;-141.84;87.11;19807.75;5031402;28;20600;-51
2023/05/06 05:06:23;;;;;;;20.43;18.30;;;13.10;99.90;;;-141.84;86.65;19856.53;5031555;28;20547;-54
2023/05/06 05:08:51;;;;;;;24.80;19.37;;;13.20;99.90;;;-141.84;86.04;19848.38;5031984;28;20205;-54
2023/05/06 05:11:20;;;;;;;23.70;19.73;;;13.20;99.90;;;-141.84;84.53;19870.75;5031782;28;20206;-54
2023/05/06 05:13:48;;;;;;;20.43;18.27;;;13.20;99.90;;;-141.84;83.91;19893.09;5031568;28;20209;-53
2023/05/06 05:16:17;;;;;;;21.53;19.27;;;13.20;99.90;;;-141.84;83.00;19897.16;5031462;28;20233;-54
2023/05/06 05:18:45;;;;;;;21.07;17.80;;;13.30;99.90;;;-141.84;83.29;19911.41;5031481;28;20209;-53
2023/05/06 05:21:13;;;;;;;21.27;18.60;;;13.40;99.90;;;-141.84;83.01;19943.91;5031550;28;20209;-53
2023/05/06 05:23:43;;;;;;;22.35;18.52;;;13.50;99.90;;;-141.84;82.37;19960.16;5031615;28;20202;-51
2023/05/06 05:26:11;;;;;;;19.73;17.73;;;13.70;99.90;;;-141.84;80.92;19956.09;5031588;28;20625;-53
2023/05/06 05:28:39;;;;;;;20.20;18.20;;;13.70;99.90;;;-141.84;79.47;20053.66;5031549;28;20187;-55
2023/05/06 05:31:07;;;;;;;18.90;16.98;;;13.90;99.90;;;-141.84;78.87;20057.72;5031501;28;20209;-54
2023/05/06 05:33:37;;;;;;;20.00;17.45;;;14.10;99.90;;;-141.84;77.06;20080.09;5031020;28;20206;-54
2023/05/06 05:36:07;;;;;;;18.23;15.70;;;14.20;99.90;;;-141.84;75.98;20096.34;5031452;28;20257;-56
2023/05/06 05:38:35;;;;;;;18.42;16.42;;;14.40;99.90;;;-141.84;75.79;20175.63;5030934;28;20271;-56
2023/05/06 05:41:05;;;;;;;18.10;16.30;;;14.70;99.90;;;-141.84;74.19;20228.47;5030666;28;20622;-53
2023/05/06 05:43:33;;;;;;;17.77;16.08;;;14.90;99.90;;;-141.84;72.28;20313.84;5030991;28;20198;-53
2023/05/06 05:46:01;;;;;;;17.08;15.25;;;15.10;99.90;;;-141.84;71.32;20332.13;5031112;28;20198;-55
2023/05/06 05:48:31;;;;;;;18.63;15.88;;;15.20;99.90;;;-141.84;69.20;20384.97;5031218;28;20661;-54
2023/05/06 05:51:00;;;;;;;17.58;15.32;;;15.30;99.90;;;-141.84;71.15;20305.69;5030875;28;20670;-55
2023/05/06 05:53:29;;;;;;;17.17;15.57;;;15.20;99.90;;;-141.84;72.06;20256.91;5031095;28;20205;-53
2023/05/06 05:55:57;;;;;;;17.33;15.55;;;15.00;99.90;;;-141.84;73.41;20216.25;5031524;28;20627;-56
2023/05/06 05:58:27;;;;;;;18.23;15.50;;;14.80;99.90;;;-141.84;73.99;20183.75;5031611;28;20213;-53
2023/05/06 06:00:55;;;;;;;17.20;15.50;;;14.80;99.90;;;-141.84;74.67;20155.28;5031329;28;20213;-53
2023/05/06 06:03:23;;;;;;;17.17;15.55;;;14.60;99.90;;;-141.84;75.13;20149.19;5030518;28;20688;-55
2023/05/06 06:05:54;;;;;;;16.67;15.18;;;14.50;99.90;;;-141.84;75.79;20128.88;5031269;28;20293;-54
2023/05/06 06:08:22;;;;;;;17.83;16.02;;;14.50;99.90;;;-141.84;74.31;20187.81;5030621;28;20194;-52
2023/05/06 06:10:50;;;;;;;17.80;16.10;;;14.50;99.90;;;-141.84;71.67;20228.47;5030835;28;20666;-56
2023/05/06 06:13:18;;;;;;;17.98;15.88;;;14.70;99.90;;;-141.84;71.94;20224.41;5030756;28;20580;-56
2023/05/06 06:15:48;;;;;;;17.52;15.20;;;14.70;99.90;;;-141.84;69.71;20287.41;5031133;28;20211;-51
2023/05/06 06:18:16;;;;;;;16.05;14.48;;;14.90;99.90;;;-141.84;68.36;20372.78;5031567;28;20591;-52
2023/05/06 06:20:44;;;;;;;16.90;15.10;;;15.20;99.90;;;-141.84;66.62;20452.06;5031345;28;20216;-53
2023/05/06 06:23:12;;;;;;;15.95;14.30;;;15.50;99.90;;;-141.84;65.01;20508.97;5031887;28;20210;-53
2023/05/06 06:25:40;;;;;;;15.48;13.88;;;15.80;99.90;;;-141.84;64.42;20517.09;5031623;28;20202;-54
2023/05/06 06:28:09;;;;;;;15.18;13.77;;;15.90;99.90;;;-141.84;65.68;20490.66;5031523;28;20230;-54
2023/05/06 06:30:37;;;;;;;16.42;14.43;;;15.70;99.90;;;-141.84;66.14;20447.97;5031936;28;20202;-54
2023/05/06 06:33:06;;;;;;;15.07;13.48;;;15.80;99.90;;;-141.84;66.99;20468.31;5030692;28;20198;-56
2023/05/06 06:35:35;;;;;;;16.98;15.18;;;15.60;99.90;;;-141.84;68.13;20395.13;5026941;28;20194;-53
2023/05/06 06:38:03;;;;;;;16.27;14.75;;;15.50;99.90;;;-141.84;69.19;20399.19;5012626;28;20234;-54
2023/05/06 06:40:31;;;;;;;16.55;14.85;;;15.40;99.90;;;-141.84;70.32;20354.47;5032144;28;20210;-54
2023/05/06 06:42:59;;;;;;;18.67;15.45;;;15.20;99.90;;;-141.84;70.90;20336.19;5031588;28;20206;-58
2023/05/06 06:45:28;;;;;;;16.70;14.98;;;15.20;99.90;;;-141.84;69.91;20360.59;5033311;28;20202;-56
2023/05/06 06:47:56;;;;;;;15.68;14.02;;;15.20;99.90;;;-141.84;69.27;20364.66;5034268;28;20202;-55
2023/05/06 06:50:26;;;;;;;16.92;14.65;;;15.30;99.90;;;-141.84;68.02;20429.69;5033964;28;20205;-53
2023/05/06 06:52:54;;;;;;;15.63;14.02;;;15.40;99.90;;;-141.84;66.95;20407.34;5032806;28;20194;-55
2023/05/06 06:55:22;;;;;;;16.65;14.82;;;15.40;99.90;;;-141.84;67.84;20393.09;5033206;28;20205;-56
2023/05/06 06:57:50;;;;;;;20.02;15.07;;;15.40;99.90;;;-141.84;68.49;20364.66;5033117;28;20210;-56
2023/05/06 07:00:19;;;;;;;17.63;15.73;;;15.20;99.90;;;-141.84;69.34;20342.28;5032759;28;20209;-53
2023/05/06 07:02:48;;;;;;;16.98;15.20;;;15.10;99.90;;;-141.84;70.06;20267.09;5033469;28;20198;-54
2023/05/06 07:05:16;;;;;;;20.67;14.93;;;14.90;99.90;;;-141.84;70.24;20279.28;5033252;28;20191;-54
2023/05/06 07:07:46;;;;;;;18.33;15.35;;;14.90;99.90;;;-141.84;70.32;20301.63;5030504;28;20203;-53
2023/05/06 07:10:14;;;;;;;15.75;14.05;;;14.70;99.90;;;-141.84;70.98;20224.41;5033411;28;20579;-51
2023/05/06 07:12:42;;;;;;;16.38;14.63;;;14.70;99.90;;;-141.84;71.69;20273.19;5033174;28;20685;-53
2023/05/06 07:15:11;;;;;;;17.35;14.68;;;14.70;99.90;;;-141.84;71.75;20258.94;5033598;28;20244;-51
2023/05/06 07:17:40;;;;;;;19.17;14.93;;;14.70;99.90;;;-141.84;70.67;20210.16;5033807;28;20635;-50
2023/05/06 07:20:10;;;;;;;16.60;14.73;;;14.50;99.90;;;-141.84;71.89;20228.47;5033881;28;20209;-54
2023/05/06 07:22:40;;;;;;;16.83;14.60;;;14.50;99.90;;;-141.84;72.01;20224.41;5034067;28;20209;-54
2023/05/06 07:25:10;;;;;;;17.05;15.20;;;14.50;99.90;;;-141.84;70.83;20240.66;5033853;28;20203;-56
2023/05/06 07:27:38;;;;;;;17.52;15.05;;;14.60;99.90;;;-141.84;70.27;20273.19;5033755;28;20292;-57
2023/05/06 07:30:08;;;;;;;17.13;14.45;;;14.60;99.90;;;-141.84;67.69;20354.47;5033871;28;20570;-55
2023/05/06 07:32:36;;;;;;;15.30;13.68;;;14.80;99.90;;;-141.84;68.83;20346.34;5033681;28;20213;-54
2023/05/06 07:35:05;;;;;;;15.00;13.07;;;14.80;99.90;;;-141.84;68.04;20380.91;5032604;28;20198;-53
2023/05/06 07:37:34;;;;;;;16.73;13.60;;;15.10;99.90;;;-141.84;68.31;20405.31;5032101;28;20218;-54
2023/05/06 07:40:02;;;;;;;16.08;14.35;;;15.20;99.90;;;-141.84;68.27;20395.13;5031686;28;20205;-53
2023/05/06 07:42:31;;;;;;;17.40;14.82;;;15.20;99.90;;;-141.84;67.73;20391.06;5031759;28;20395;-55
2023/05/06 07:44:59;;;;;;;16.42;14.55;;;15.20;99.90;;;-141.84;67.98;20389.03;5032210;28;20224;-53
2023/05/06 07:47:31;;;;;;;18.60;14.55;;;15.30;99.90;;;-141.84;65.56;20496.78;5029036;28;20197;-55
2023/05/06 07:49:59;;;;;;;18.88;15.00;;;15.40;99.90;;;-141.84;65.38;20456.13;5032780;28;20237;-54
2023/05/06 07:52:28;;;;;;;16.55;14.68;;;15.50;99.90;;;-141.84;65.57;20468.31;5032858;28;20199;-55
2023/05/06 07:54:56;;;;;;;15.73;13.65;;;15.60;99.90;;;-141.84;64.12;20527.25;5033209;28;20291;-55
2023/05/06 07:57:24;;;;;;;15.88;13.98;;;15.70;99.90;;;-141.84;63.47;20602.47;5033380;28;20222;-56
2023/05/06 07:59:54;;;;;;;17.20;14.93;;;16.00;99.90;;;-141.84;63.33;20563.84;5033196;28;20696;-56
2023/05/06 08:02:22;;;;;;;19.02;14.73;;;15.90;99.90;;;-141.84;62.39;20598.41;5033182;28;20216;-53
2023/05/06 08:04:50;;;;;;;15.65;14.05;;;16.10;99.90;;;-141.84;63.66;20614.66;5032863;28;20209;-54
2023/05/06 08:07:20;;;;;;;16.40;14.70;;;16.10;99.90;;;-141.84;63.21;20517.09;5033034;28;20201;-53
2023/05/06 08:09:48;;;;;;;16.33;14.63;;;15.90;99.90;;;-141.84;63.68;20486.59;5033008;28;20202;-55
2023/05/06 08:12:16;;;;;;;16.48;14.82;;;15.60;99.90;;;-141.84;65.20;20411.41;5029676;28;20199;-54
2023/05/06 08:14:44;;;;;;;17.55;15.65;;;15.40;99.90;;;-141.84;65.41;20399.19;5032086;28;20206;-55
2023/05/06 08:17:14;;;;;;;16.98;14.60;;;15.30;99.90;;;-141.84;65.49;20411.41;5020706;28;20230;-56
2023/05/06 08:19:42;;;;;;;16.25;14.65;;;15.20;99.90;;;-141.84;65.78;20427.66;5030707;28;20693;-53
2023/05/06 08:22:11;;;;;;;16.40;14.70;;;15.20;99.90;;;-141.84;65.72;20464.25;5031349;28;20206;-54
2023/05/06 08:24:39;;;;;;;15.50;13.98;;;15.30;99.90;;;-141.84;64.36;20494.75;5031680;28;20700;-55
2023/05/06 08:27:07;;;;;;;15.80;14.13;;;15.60;99.90;;;-141.84;63.62;20529.28;5031724;28;20229;-54
2023/05/06 08:29:35;;;;;;;16.70;13.82;;;15.70;99.90;;;-141.84;63.33;20557.75;5032551;28;20205;-56
2023/05/06 08:32:03;;;;;;;15.93;14.38;;;15.80;99.90;;;-141.84;63.13;20551.66;5025294;28;20206;-55
2023/05/06 08:34:33;;;;;;;17.67;14.70;;;15.80;99.90;;;-141.84;62.63;20561.81;5032264;28;20237;-56
2023/05/06 08:37:02;;;;;;;16.38;14.65;;;15.80;99.90;;;-141.84;62.47;20543.53;5032202;28;20198;-56
2023/05/06 08:39:31;;;;;;;16.95;14.30;;;16.00;99.90;;;-141.84;61.13;20596.38;5032365;28;20670;-55
2023/05/06 08:42:01;;;;;;;14.40;12.90;;;16.00;99.90;;;-141.84;61.61;20622.81;5032571;28;20205;-54
2023/05/06 08:44:30;;;;;;;16.65;12.50;;;16.00;99.90;;;-141.84;61.80;20598.41;5032597;28;20186;-55
2023/05/06 08:46:59;;;;;;;14.65;12.68;;;16.00;99.90;;;-141.84;60.38;20726.47;5032180;28;20253;-56
2023/05/06 08:49:27;;;;;;;13.82;12.43;;;16.30;99.90;;;-141.84;59.37;20728.50;5031582;28;20202;-56
2023/05/06 08:51:57;;;;;;;14.82;13.07;;;16.60;99.90;;;-141.84;59.46;20797.63;5031199;28;20662;-56
2023/05/06 08:54:26;;;;;;;13.65;11.70;;;16.90;99.90;;;-141.84;57.47;20822.03;5032312;28;20296;-53
2023/05/06 08:56:59;;;;;;;13.82;11.38;;;17.00;99.90;;;-141.84;58.06;20846.41;5031669;28;20202;-55
2023/05/06 08:59:31;;;;;;;12.60;11.30;;;17.20;99.90;;;-141.84;57.98;20883.00;5031860;28;20297;-55
2023/05/06 09:02:01;;;;;;;12.90;11.60;;;17.40;99.90;;;-141.84;58.01;20769.16;5031082;28;20186;-54
2023/05/06 09:04:30;;;;;;;13.60;12.20;;;17.10;99.90;;;-141.84;59.03;20716.31;5032045;28;20210;-55
2023/05/06 09:06:59;;;;;;;12.65;11.43;;;16.90;99.90;;;-141.84;59.34;20752.91;5031155;28;20229;-54
2023/05/06 09:09:27;;;;;;;13.23;11.85;;;16.70;99.90;;;-141.84;59.90;20744.78;5031654;28;20545;-54
2023/05/06 09:11:56;;;;;;;12.90;11.60;;;16.70;99.90;;;-141.84;60.59;20683.78;5031593;28;20202;-54
2023/05/06 09:14:24;;;;;;;14.43;12.93;;;16.70;99.90;;;-141.84;60.81;20663.47;5032108;28;20574;-55
2023/05/06 09:16:53;;;;;;;12.15;10.98;;;16.50;99.90;;;-141.84;61.65;20624.84;5031342;28;20670;-56
2023/05/06 09:19:22;;;;;;;13.05;11.75;;;16.40;99.90;;;-141.84;62.00;20628.91;5031367;28;20313;-56
2023/05/06 09:21:51;;;;;;;12.95;11.65;;;16.30;99.90;;;-141.84;62.79;20590.28;5031064;28;20202;-51
2023/05/06 09:24:21;;;;;;;14.55;11.88;;;16.30;99.90;;;-141.84;62.39;20612.63;5031768;28;20213;-53
2023/05/06 09:26:53;;;;;;;14.30;12.90;;;16.20;99.90;;;-141.84;60.90;20643.13;5030884;28;20233;-53
2023/05/06 09:29:22;;;;;;;12.32;11.10;;;16.20;99.90;;;-141.84;60.91;20663.47;5031322;28;20798;-53
2023/05/06 09:31:51;;;;;;;12.50;11.27;;;16.50;99.90;;;-141.84;59.70;20744.78;5031299;28;20210;-54
2023/05/06 09:34:20;;;;;;;14.35;12.82;;;16.80;99.90;;;-141.84;58.92;20795.59;5031375;28;20225;-55
2023/05/06 09:36:48;;;;;;;14.15;11.68;;;17.00;99.90;;;-141.84;58.03;20850.47;5030775;28;20201;-52
2023/05/06 09:39:17;;;;;;;13.15;11.95;;;17.10;99.90;;;-141.84;56.64;20915.53;5031146;28;20592;-56
2023/05/06 09:41:46;;;;;;;12.50;11.30;;;17.40;99.90;;;-141.84;57.00;20893.16;5031440;28;20202;-52
2023/05/06 09:44:15;;;;;;;13.07;11.77;;;17.50;99.90;;;-141.84;55.99;20935.88;5029097;28;20210;-54
2023/05/06 09:46:44;;;;;;;13.95;12.30;;;17.60;99.90;;;-141.84;56.35;20909.44;5029271;28;20600;-52
2023/05/06 09:49:14;;;;;;;14.27;12.88;;;17.40;99.90;;;-141.84;57.20;20830.16;5030078;28;20205;-53
2023/05/06 09:51:46;;;;;;;13.80;12.32;;;17.20;99.90;;;-141.84;57.55;20805.75;5026764;28;20198;-54
2023/05/06 09:54:17;;;;;;;13.10;11.90;;;17.30;99.90;;;-141.84;56.24;20901.31;5029950;28;20206;-57
2023/05/06 09:56:49;;;;;;;13.68;12.30;;;17.50;99.90;;;-141.84;56.41;20909.44;5025426;28;20561;-55
2023/05/06 09:59:18;;;;;;;13.50;12.27;;;17.60;99.90;;;-141.84;57.08;20876.91;5028520;28;20273;-54
2023/05/06 10:01:47;;;;;;;14.07;12.73;;;17.60;99.90;;;-141.84;56.77;20970.41;5030222;28;20542;-53